sensor_id;sensor_type;location;lat;lon;timestamp;P1;durP1;ratioP1;P2;durP2;ratioP2
41883;SDS011;27566;50.930;5.328;2024-02-14T00:00:38;5.45;;;2.70;;
41883;SDS011;27566;50.930;5.328;2024-02-14T00:03:06;4.80;;;2.33;;
41883;SDS011;27566;50.930;5.328;2024-02-14T00:05:32;6.85;;;3.72;;
41883;SDS011;27566;50.930;5.328;2024-02-14T00:07:58;7.10;;;2.20;;
41883;SDS011;27566;50.930;5.328;2024-02-14T00:10:24;4.25;;;2.00;;
41883;SDS011;27566;50.930;5.328;2024-02-14T00:12:50;3.85;;;2.22;;
41883;SDS011;27566;50.930;5.328;2024-02-14T00:15:16;6.82;;;2.65;;
41883;SDS011;27566;50.930;5.328;2024-02-14T00:17:42;7.28;;;2.88;;
41883;SDS011;27566;50.930;5.328;2024-02-14T00:20:09;9.18;;;4.00;;
41883;SDS011;27566;50.930;5.328;2024-02-14T00:22:38;5.43;;;2.35;;
41883;SDS011;27566;50.930;5.328;2024-02-14T00:25:04;6.60;;;3.08;;
41883;SDS011;27566;50.930;5.328;2024-02-14T00:27:30;5.97;;;2.67;;
41883;SDS011;27566;50.930;5.328;2024-02-14T00:29:56;5.78;;;2.50;;
41883;SDS011;27566;50.930;5.328;2024-02-14T00:32:22;5.35;;;2.58;;
41883;SDS011;27566;50.930;5.328;2024-02-14T00:34:48;5.10;;;2.70;;
41883;SDS011;27566;50.930;5.328;2024-02-14T00:37:15;5.75;;;2.40;;
41883;SDS011;27566;50.930;5.328;2024-02-14T00:39:41;6.55;;;3.22;;
41883;SDS011;27566;50.930;5.328;2024-02-14T00:42:07;7.32;;;3.60;;
41883;SDS011;27566;50.930;5.328;2024-02-14T00:44:33;6.80;;;2.70;;
41883;SDS011;27566;50.930;5.328;2024-02-14T00:46:59;3.97;;;2.22;;
41883;SDS011;27566;50.930;5.328;2024-02-14T00:49:26;5.32;;;2.33;;
41883;SDS011;27566;50.930;5.328;2024-02-14T00:51:52;5.65;;;3.22;;
41883;SDS011;27566;50.930;5.328;2024-02-14T00:54:18;4.78;;;2.25;;
41883;SDS011;27566;50.930;5.328;2024-02-14T00:56:44;7.90;;;2.78;;
41883;SDS011;27566;50.930;5.328;2024-02-14T00:59:10;6.55;;;2.67;;
41883;SDS011;27566;50.930;5.328;2024-02-14T01:01:35;8.68;;;3.55;;
41883;SDS011;27566;50.930;5.328;2024-02-14T01:04:01;6.82;;;2.78;;
41883;SDS011;27566;50.930;5.328;2024-02-14T01:06:29;7.60;;;2.97;;
41883;SDS011;27566;50.930;5.328;2024-02-14T01:08:55;9.38;;;4.28;;
41883;SDS011;27566;50.930;5.328;2024-02-14T01:11:21;9.52;;;2.30;;
41883;SDS011;27566;50.930;5.328;2024-02-14T01:13:47;7.43;;;3.08;;
41883;SDS011;27566;50.930;5.328;2024-02-14T01:16:13;7.07;;;3.85;;
41883;SDS011;27566;50.930;5.328;2024-02-14T01:18:39;6.93;;;3.28;;
41883;SDS011;27566;50.930;5.328;2024-02-14T01:21:05;5.85;;;3.35;;
41883;SDS011;27566;50.930;5.328;2024-02-14T01:23:32;6.68;;;3.40;;
41883;SDS011;27566;50.930;5.328;2024-02-14T01:25:58;5.03;;;2.13;;
41883;SDS011;27566;50.930;5.328;2024-02-14T01:28:23;7.22;;;2.83;;
41883;SDS011;27566;50.930;5.328;2024-02-14T01:30:50;7.25;;;3.47;;
41883;SDS011;27566;50.930;5.328;2024-02-14T01:33:16;6.70;;;2.95;;
41883;SDS011;27566;50.930;5.328;2024-02-14T01:35:42;4.90;;;2.42;;
41883;SDS011;27566;50.930;5.328;2024-02-14T01:38:08;7.90;;;2.83;;
41883;SDS011;27566;50.930;5.328;2024-02-14T01:40:34;9.55;;;4.10;;
41883;SDS011;27566;50.930;5.328;2024-02-14T01:42:59;8.43;;;3.00;;
41883;SDS011;27566;50.930;5.328;2024-02-14T01:45:25;10.55;;;3.17;;
41883;SDS011;27566;50.930;5.328;2024-02-14T01:47:52;6.55;;;2.92;;
41883;SDS011;27566;50.930;5.328;2024-02-14T01:50:20;4.90;;;2.80;;
41883;SDS011;27566;50.930;5.328;2024-02-14T01:52:53;7.97;;;3.80;;
41883;SDS011;27566;50.930;5.328;2024-02-14T01:55:20;5.80;;;3.03;;
41883;SDS011;27566;50.930;5.328;2024-02-14T01:57:47;8.55;;;2.92;;
41883;SDS011;27566;50.930;5.328;2024-02-14T02:00:13;5.90;;;2.83;;
41883;SDS011;27566;50.930;5.328;2024-02-14T02:02:43;6.07;;;2.95;;
41883;SDS011;27566;50.930;5.328;2024-02-14T02:05:09;6.40;;;2.83;;
41883;SDS011;27566;50.930;5.328;2024-02-14T02:07:35;6.28;;;4.18;;
41883;SDS011;27566;50.930;5.328;2024-02-14T02:10:04;10.88;;;5.00;;
41883;SDS011;27566;50.930;5.328;2024-02-14T02:12:31;9.25;;;3.25;;
41883;SDS011;27566;50.930;5.328;2024-02-14T02:14:57;5.82;;;3.50;;
41883;SDS011;27566;50.930;5.328;2024-02-14T02:17:24;9.63;;;3.55;;
41883;SDS011;27566;50.930;5.328;2024-02-14T02:19:53;6.72;;;3.10;;
41883;SDS011;27566;50.930;5.328;2024-02-14T02:22:19;11.73;;;4.68;;
41883;SDS011;27566;50.930;5.328;2024-02-14T02:24:45;8.52;;;3.63;;
41883;SDS011;27566;50.930;5.328;2024-02-14T02:27:12;8.75;;;4.07;;
41883;SDS011;27566;50.930;5.328;2024-02-14T02:29:41;8.35;;;3.13;;
41883;SDS011;27566;50.930;5.328;2024-02-14T02:32:07;7.22;;;3.45;;
41883;SDS011;27566;50.930;5.328;2024-02-14T02:34:34;6.15;;;3.40;;
41883;SDS011;27566;50.930;5.328;2024-02-14T02:37:04;10.15;;;4.55;;
41883;SDS011;27566;50.930;5.328;2024-02-14T02:39:34;9.07;;;4.30;;
41883;SDS011;27566;50.930;5.328;2024-02-14T02:42:01;13.25;;;5.10;;
41883;SDS011;27566;50.930;5.328;2024-02-14T02:44:28;17.23;;;7.82;;
41883;SDS011;27566;50.930;5.328;2024-02-14T02:46:54;12.20;;;6.70;;
41883;SDS011;27566;50.930;5.328;2024-02-14T02:49:21;15.68;;;7.35;;
41883;SDS011;27566;50.930;5.328;2024-02-14T02:51:47;14.23;;;7.50;;
41883;SDS011;27566;50.930;5.328;2024-02-14T02:54:13;13.07;;;6.15;;
41883;SDS011;27566;50.930;5.328;2024-02-14T02:56:39;10.48;;;5.57;;
41883;SDS011;27566;50.930;5.328;2024-02-14T02:59:08;9.20;;;4.25;;
41883;SDS011;27566;50.930;5.328;2024-02-14T03:01:35;11.82;;;6.40;;
41883;SDS011;27566;50.930;5.328;2024-02-14T03:04:01;15.20;;;6.95;;
41883;SDS011;27566;50.930;5.328;2024-02-14T03:06:27;13.07;;;6.18;;
41883;SDS011;27566;50.930;5.328;2024-02-14T03:08:53;10.98;;;5.18;;
41883;SDS011;27566;50.930;5.328;2024-02-14T03:11:21;11.40;;;5.07;;
41883;SDS011;27566;50.930;5.328;2024-02-14T03:13:47;11.93;;;6.75;;
41883;SDS011;27566;50.930;5.328;2024-02-14T03:16:14;10.27;;;4.80;;
41883;SDS011;27566;50.930;5.328;2024-02-14T03:18:42;17.48;;;7.10;;
41883;SDS011;27566;50.930;5.328;2024-02-14T03:21:09;8.23;;;4.72;;
41883;SDS011;27566;50.930;5.328;2024-02-14T03:23:37;8.52;;;3.60;;
41883;SDS011;27566;50.930;5.328;2024-02-14T03:26:04;13.40;;;6.53;;
41883;SDS011;27566;50.930;5.328;2024-02-14T03:28:32;11.90;;;4.82;;
41883;SDS011;27566;50.930;5.328;2024-02-14T03:30:58;11.65;;;5.35;;
41883;SDS011;27566;50.930;5.328;2024-02-14T03:33:26;7.82;;;3.47;;
41883;SDS011;27566;50.930;5.328;2024-02-14T03:35:54;11.30;;;4.75;;
41883;SDS011;27566;50.930;5.328;2024-02-14T03:38:26;11.95;;;5.47;;
41883;SDS011;27566;50.930;5.328;2024-02-14T03:43:19;9.38;;;3.90;;
41883;SDS011;27566;50.930;5.328;2024-02-14T03:45:47;8.88;;;4.70;;
41883;SDS011;27566;50.930;5.328;2024-02-14T03:48:12;8.82;;;4.47;;
41883;SDS011;27566;50.930;5.328;2024-02-14T03:50:39;11.80;;;6.28;;
41883;SDS011;27566;50.930;5.328;2024-02-14T03:53:05;11.73;;;5.57;;
41883;SDS011;27566;50.930;5.328;2024-02-14T03:55:31;14.93;;;4.47;;
41883;SDS011;27566;50.930;5.328;2024-02-14T03:57:56;9.43;;;4.72;;
41883;SDS011;27566;50.930;5.328;2024-02-14T04:00:23;11.27;;;5.00;;
41883;SDS011;27566;50.930;5.328;2024-02-14T04:02:49;10.30;;;5.10;;
41883;SDS011;27566;50.930;5.328;2024-02-14T04:05:18;9.27;;;5.05;;
41883;SDS011;27566;50.930;5.328;2024-02-14T04:07:44;7.78;;;4.50;;
41883;SDS011;27566;50.930;5.328;2024-02-14T04:10:16;8.90;;;4.43;;
41883;SDS011;27566;50.930;5.328;2024-02-14T04:12:42;8.18;;;4.20;;
41883;SDS011;27566;50.930;5.328;2024-02-14T04:15:08;11.40;;;5.80;;
41883;SDS011;27566;50.930;5.328;2024-02-14T04:17:35;10.27;;;4.72;;
41883;SDS011;27566;50.930;5.328;2024-02-14T04:20:00;11.52;;;5.60;;
41883;SDS011;27566;50.930;5.328;2024-02-14T04:22:26;8.70;;;5.18;;
41883;SDS011;27566;50.930;5.328;2024-02-14T04:24:52;11.02;;;4.80;;
41883;SDS011;27566;50.930;5.328;2024-02-14T04:27:18;9.35;;;4.90;;
41883;SDS011;27566;50.930;5.328;2024-02-14T04:29:47;9.65;;;5.50;;
41883;SDS011;27566;50.930;5.328;2024-02-14T04:32:13;9.30;;;5.35;;
41883;SDS011;27566;50.930;5.328;2024-02-14T04:34:39;11.50;;;6.47;;
41883;SDS011;27566;50.930;5.328;2024-02-14T04:37:07;11.60;;;5.97;;
41883;SDS011;27566;50.930;5.328;2024-02-14T04:39:35;6.97;;;4.43;;
41883;SDS011;27566;50.930;5.328;2024-02-14T04:42:01;10.05;;;4.85;;
41883;SDS011;27566;50.930;5.328;2024-02-14T04:44:28;9.38;;;4.65;;
41883;SDS011;27566;50.930;5.328;2024-02-14T04:46:54;10.48;;;5.22;;
41883;SDS011;27566;50.930;5.328;2024-02-14T04:49:21;11.13;;;6.32;;
41883;SDS011;27566;50.930;5.328;2024-02-14T04:51:47;8.93;;;5.22;;
41883;SDS011;27566;50.930;5.328;2024-02-14T04:54:13;9.68;;;5.97;;
41883;SDS011;27566;50.930;5.328;2024-02-14T04:56:41;8.75;;;5.03;;
41883;SDS011;27566;50.930;5.328;2024-02-14T04:59:07;8.75;;;5.30;;
41883;SDS011;27566;50.930;5.328;2024-02-14T05:01:36;10.98;;;5.25;;
41883;SDS011;27566;50.930;5.328;2024-02-14T05:04:02;8.93;;;4.97;;
41883;SDS011;27566;50.930;5.328;2024-02-14T05:06:29;9.75;;;4.82;;
41883;SDS011;27566;50.930;5.328;2024-02-14T05:08:55;10.32;;;5.38;;
41883;SDS011;27566;50.930;5.328;2024-02-14T05:11:21;10.70;;;5.00;;
41883;SDS011;27566;50.930;5.328;2024-02-14T05:13:47;8.77;;;4.40;;
41883;SDS011;27566;50.930;5.328;2024-02-14T05:16:13;8.95;;;5.15;;
41883;SDS011;27566;50.930;5.328;2024-02-14T05:18:46;7.57;;;4.63;;
41883;SDS011;27566;50.930;5.328;2024-02-14T05:21:13;11.23;;;4.88;;
41883;SDS011;27566;50.930;5.328;2024-02-14T05:23:39;10.75;;;5.43;;
41883;SDS011;27566;50.930;5.328;2024-02-14T05:26:05;8.40;;;4.80;;
41883;SDS011;27566;50.930;5.328;2024-02-14T05:28:31;7.57;;;4.07;;
41883;SDS011;27566;50.930;5.328;2024-02-14T05:30:58;10.48;;;5.53;;
41883;SDS011;27566;50.930;5.328;2024-02-14T05:33:25;9.77;;;5.43;;
41883;SDS011;27566;50.930;5.328;2024-02-14T05:35:51;9.98;;;5.00;;
41883;SDS011;27566;50.930;5.328;2024-02-14T05:38:18;9.60;;;5.40;;
41883;SDS011;27566;50.930;5.328;2024-02-14T05:40:47;9.50;;;5.60;;
41883;SDS011;27566;50.930;5.328;2024-02-14T05:43:13;9.15;;;5.20;;
41883;SDS011;27566;50.930;5.328;2024-02-14T05:45:40;11.00;;;6.55;;
41883;SDS011;27566;50.930;5.328;2024-02-14T05:48:06;9.25;;;6.25;;
41883;SDS011;27566;50.930;5.328;2024-02-14T05:50:33;11.27;;;5.53;;
41883;SDS011;27566;50.930;5.328;2024-02-14T05:52:59;10.05;;;6.07;;
41883;SDS011;27566;50.930;5.328;2024-02-14T05:55:26;11.65;;;6.25;;
41883;SDS011;27566;50.930;5.328;2024-02-14T05:57:52;8.40;;;5.50;;
41883;SDS011;27566;50.930;5.328;2024-02-14T06:00:18;9.80;;;6.38;;
41883;SDS011;27566;50.930;5.328;2024-02-14T06:02:46;11.00;;;5.45;;
41883;SDS011;27566;50.930;5.328;2024-02-14T06:05:12;14.02;;;6.38;;
41883;SDS011;27566;50.930;5.328;2024-02-14T06:07:39;11.95;;;6.28;;
41883;SDS011;27566;50.930;5.328;2024-02-14T06:10:06;11.98;;;5.75;;
41883;SDS011;27566;50.930;5.328;2024-02-14T06:12:33;14.13;;;6.75;;
41883;SDS011;27566;50.930;5.328;2024-02-14T06:15:00;9.75;;;5.72;;
41883;SDS011;27566;50.930;5.328;2024-02-14T06:17:26;9.65;;;6.18;;
41883;SDS011;27566;50.930;5.328;2024-02-14T06:19:53;12.88;;;7.13;;
41883;SDS011;27566;50.930;5.328;2024-02-14T06:22:19;10.57;;;6.28;;
41883;SDS011;27566;50.930;5.328;2024-02-14T06:24:45;13.60;;;7.30;;
41883;SDS011;27566;50.930;5.328;2024-02-14T06:27:13;8.77;;;5.28;;
41883;SDS011;27566;50.930;5.328;2024-02-14T06:29:43;9.38;;;5.18;;
41883;SDS011;27566;50.930;5.328;2024-02-14T06:32:11;10.68;;;4.78;;
41883;SDS011;27566;50.930;5.328;2024-02-14T06:34:38;8.57;;;4.45;;
41883;SDS011;27566;50.930;5.328;2024-02-14T06:37:04;8.48;;;4.78;;
41883;SDS011;27566;50.930;5.328;2024-02-14T06:39:30;7.95;;;4.65;;
41883;SDS011;27566;50.930;5.328;2024-02-14T06:41:56;8.00;;;5.05;;
41883;SDS011;27566;50.930;5.328;2024-02-14T06:44:25;9.60;;;4.80;;
41883;SDS011;27566;50.930;5.328;2024-02-14T06:46:51;9.88;;;5.38;;
41883;SDS011;27566;50.930;5.328;2024-02-14T06:49:17;8.90;;;5.28;;
41883;SDS011;27566;50.930;5.328;2024-02-14T06:51:43;10.18;;;4.82;;
41883;SDS011;27566;50.930;5.328;2024-02-14T06:54:10;8.07;;;4.55;;
41883;SDS011;27566;50.930;5.328;2024-02-14T06:56:37;11.05;;;4.00;;
41883;SDS011;27566;50.930;5.328;2024-02-14T06:59:03;17.55;;;5.15;;
41883;SDS011;27566;50.930;5.328;2024-02-14T07:01:29;10.57;;;4.25;;
41883;SDS011;27566;50.930;5.328;2024-02-14T07:03:56;10.48;;;4.78;;
41883;SDS011;27566;50.930;5.328;2024-02-14T07:06:23;12.07;;;5.18;;
41883;SDS011;27566;50.930;5.328;2024-02-14T07:08:49;9.23;;;4.20;;
41883;SDS011;27566;50.930;5.328;2024-02-14T07:11:16;12.75;;;5.07;;
41883;SDS011;27566;50.930;5.328;2024-02-14T07:13:42;12.98;;;5.13;;
41883;SDS011;27566;50.930;5.328;2024-02-14T07:16:08;17.40;;;5.80;;
41883;SDS011;27566;50.930;5.328;2024-02-14T07:18:34;11.63;;;4.95;;
41883;SDS011;27566;50.930;5.328;2024-02-14T07:21:00;10.63;;;4.18;;
41883;SDS011;27566;50.930;5.328;2024-02-14T07:23:30;8.90;;;4.65;;
41883;SDS011;27566;50.930;5.328;2024-02-14T07:25:58;7.47;;;4.13;;
41883;SDS011;27566;50.930;5.328;2024-02-14T07:28:23;9.40;;;3.42;;
41883;SDS011;27566;50.930;5.328;2024-02-14T07:30:49;7.95;;;3.90;;
41883;SDS011;27566;50.930;5.328;2024-02-14T07:33:15;8.60;;;4.22;;
41883;SDS011;27566;50.930;5.328;2024-02-14T07:35:41;12.63;;;3.67;;
41883;SDS011;27566;50.930;5.328;2024-02-14T07:38:08;8.05;;;4.25;;
41883;SDS011;27566;50.930;5.328;2024-02-14T07:40:34;13.93;;;4.18;;
41883;SDS011;27566;50.930;5.328;2024-02-14T07:43:00;7.32;;;3.67;;
41883;SDS011;27566;50.930;5.328;2024-02-14T07:45:27;7.65;;;3.92;;
41883;SDS011;27566;50.930;5.328;2024-02-14T07:47:53;6.55;;;2.70;;
41883;SDS011;27566;50.930;5.328;2024-02-14T07:50:19;7.93;;;3.33;;
41883;SDS011;27566;50.930;5.328;2024-02-14T07:52:47;9.73;;;4.28;;
41883;SDS011;27566;50.930;5.328;2024-02-14T07:55:12;7.50;;;4.07;;
41883;SDS011;27566;50.930;5.328;2024-02-14T07:57:39;9.88;;;4.13;;
41883;SDS011;27566;50.930;5.328;2024-02-14T08:00:06;8.35;;;3.30;;
41883;SDS011;27566;50.930;5.328;2024-02-14T08:02:36;8.60;;;3.50;;
41883;SDS011;27566;50.930;5.328;2024-02-14T08:05:05;7.30;;;3.28;;
41883;SDS011;27566;50.930;5.328;2024-02-14T08:07:31;8.73;;;3.38;;
41883;SDS011;27566;50.930;5.328;2024-02-14T08:09:57;6.97;;;3.58;;
41883;SDS011;27566;50.930;5.328;2024-02-14T08:12:22;6.93;;;3.10;;
41883;SDS011;27566;50.930;5.328;2024-02-14T08:14:50;8.07;;;4.03;;
41883;SDS011;27566;50.930;5.328;2024-02-14T08:17:17;10.55;;;3.58;;
41883;SDS011;27566;50.930;5.328;2024-02-14T08:19:43;9.48;;;4.32;;
41883;SDS011;27566;50.930;5.328;2024-02-14T08:22:09;8.18;;;3.53;;
41883;SDS011;27566;50.930;5.328;2024-02-14T08:24:35;7.47;;;3.85;;
41883;SDS011;27566;50.930;5.328;2024-02-14T08:27:00;9.73;;;3.17;;
41883;SDS011;27566;50.930;5.328;2024-02-14T08:29:26;5.50;;;3.22;;
41883;SDS011;27566;50.930;5.328;2024-02-14T08:31:53;8.60;;;3.55;;
41883;SDS011;27566;50.930;5.328;2024-02-14T08:34:21;10.35;;;3.80;;
41883;SDS011;27566;50.930;5.328;2024-02-14T08:36:46;4.97;;;3.20;;
41883;SDS011;27566;50.930;5.328;2024-02-14T08:39:13;7.35;;;3.30;;
41883;SDS011;27566;50.930;5.328;2024-02-14T08:41:39;9.52;;;3.67;;
41883;SDS011;27566;50.930;5.328;2024-02-14T08:44:08;9.48;;;4.03;;
41883;SDS011;27566;50.930;5.328;2024-02-14T08:46:35;9.85;;;3.80;;
41883;SDS011;27566;50.930;5.328;2024-02-14T08:49:00;7.95;;;4.53;;
41883;SDS011;27566;50.930;5.328;2024-02-14T08:51:34;10.90;;;3.20;;
41883;SDS011;27566;50.930;5.328;2024-02-14T08:54:01;6.63;;;2.90;;
41883;SDS011;27566;50.930;5.328;2024-02-14T08:56:32;8.95;;;3.00;;
41883;SDS011;27566;50.930;5.328;2024-02-14T08:59:02;6.63;;;3.35;;
41883;SDS011;27566;50.930;5.328;2024-02-14T09:01:29;8.77;;;3.45;;
41883;SDS011;27566;50.930;5.328;2024-02-14T09:03:55;10.95;;;3.28;;
41883;SDS011;27566;50.930;5.328;2024-02-14T09:06:21;7.20;;;3.22;;
41883;SDS011;27566;50.930;5.328;2024-02-14T09:08:47;10.90;;;4.15;;
41883;SDS011;27566;50.930;5.328;2024-02-14T09:11:15;6.28;;;3.08;;
41883;SDS011;27566;50.930;5.328;2024-02-14T09:13:41;6.00;;;3.10;;
41883;SDS011;27566;50.930;5.328;2024-02-14T09:16:08;6.55;;;2.92;;
41883;SDS011;27566;50.930;5.328;2024-02-14T09:18:35;5.45;;;3.05;;
41883;SDS011;27566;50.930;5.328;2024-02-14T09:21:02;11.57;;;3.35;;
41883;SDS011;27566;50.930;5.328;2024-02-14T09:23:31;11.57;;;4.10;;
41883;SDS011;27566;50.930;5.328;2024-02-14T09:25:57;8.60;;;3.28;;
41883;SDS011;27566;50.930;5.328;2024-02-14T09:28:24;14.43;;;3.60;;
41883;SDS011;27566;50.930;5.328;2024-02-14T09:30:50;7.72;;;2.80;;
41883;SDS011;27566;50.930;5.328;2024-02-14T09:33:16;6.88;;;3.45;;
41883;SDS011;27566;50.930;5.328;2024-02-14T09:35:42;6.30;;;3.13;;
41883;SDS011;27566;50.930;5.328;2024-02-14T09:38:10;5.60;;;2.97;;
41883;SDS011;27566;50.930;5.328;2024-02-14T09:40:42;6.78;;;3.53;;
41883;SDS011;27566;50.930;5.328;2024-02-14T09:43:54;7.10;;;3.38;;
41883;SDS011;27566;50.930;5.328;2024-02-14T09:46:03;7.00;;;3.13;;
41883;SDS011;27566;50.930;5.328;2024-02-14T09:48:29;6.43;;;2.72;;
41883;SDS011;27566;50.930;5.328;2024-02-14T09:50:56;5.85;;;3.15;;
41883;SDS011;27566;50.930;5.328;2024-02-14T09:53:23;6.40;;;2.78;;
41883;SDS011;27566;50.930;5.328;2024-02-14T09:55:52;6.40;;;2.33;;
41883;SDS011;27566;50.930;5.328;2024-02-14T09:58:19;6.93;;;2.50;;
41883;SDS011;27566;50.930;5.328;2024-02-14T10:00:46;4.75;;;2.38;;
41883;SDS011;27566;50.930;5.328;2024-02-14T10:03:12;4.50;;;2.08;;
41883;SDS011;27566;50.930;5.328;2024-02-14T10:05:38;4.78;;;2.25;;
41883;SDS011;27566;50.930;5.328;2024-02-14T10:08:04;4.72;;;2.35;;
41883;SDS011;27566;50.930;5.328;2024-02-14T10:10:31;5.28;;;2.17;;
41883;SDS011;27566;50.930;5.328;2024-02-14T10:13:00;3.97;;;2.15;;
41883;SDS011;27566;50.930;5.328;2024-02-14T10:15:28;5.30;;;1.88;;
41883;SDS011;27566;50.930;5.328;2024-02-14T10:17:57;4.18;;;1.80;;
41883;SDS011;27566;50.930;5.328;2024-02-14T10:20:24;4.45;;;2.00;;
41883;SDS011;27566;50.930;5.328;2024-02-14T10:22:51;4.57;;;2.50;;
41883;SDS011;27566;50.930;5.328;2024-02-14T10:25:18;4.10;;;1.90;;
41883;SDS011;27566;50.930;5.328;2024-02-14T10:27:44;3.92;;;2.17;;
41883;SDS011;27566;50.930;5.328;2024-02-14T10:30:12;5.05;;;2.05;;
41883;SDS011;27566;50.930;5.328;2024-02-14T10:32:40;3.70;;;2.33;;
41883;SDS011;27566;50.930;5.328;2024-02-14T10:35:06;9.43;;;2.28;;
41883;SDS011;27566;50.930;5.328;2024-02-14T10:37:34;6.03;;;2.35;;
41883;SDS011;27566;50.930;5.328;2024-02-14T10:40:03;4.00;;;1.80;;
41883;SDS011;27566;50.930;5.328;2024-02-14T10:42:33;3.78;;;1.95;;
41883;SDS011;27566;50.930;5.328;2024-02-14T10:45:00;3.33;;;1.60;;
41883;SDS011;27566;50.930;5.328;2024-02-14T10:47:31;4.85;;;1.88;;
41883;SDS011;27566;50.930;5.328;2024-02-14T10:50:02;4.55;;;2.05;;
41883;SDS011;27566;50.930;5.328;2024-02-14T10:52:33;3.05;;;1.88;;
41883;SDS011;27566;50.930;5.328;2024-02-14T10:55:01;3.10;;;1.88;;
41883;SDS011;27566;50.930;5.328;2024-02-14T10:57:29;3.15;;;1.48;;
41883;SDS011;27566;50.930;5.328;2024-02-14T10:59:57;4.38;;;2.35;;
41883;SDS011;27566;50.930;5.328;2024-02-14T11:02:26;4.95;;;1.90;;
41883;SDS011;27566;50.930;5.328;2024-02-14T11:04:55;6.82;;;1.83;;
41883;SDS011;27566;50.930;5.328;2024-02-14T11:07:22;4.75;;;1.73;;
41883;SDS011;27566;50.930;5.328;2024-02-14T11:09:48;3.60;;;2.15;;
41883;SDS011;27566;50.930;5.328;2024-02-14T11:12:31;5.07;;;2.17;;
41883;SDS011;27566;50.930;5.328;2024-02-14T11:14:59;5.60;;;1.60;;
41883;SDS011;27566;50.930;5.328;2024-02-14T11:17:26;3.92;;;1.90;;
41883;SDS011;27566;50.930;5.328;2024-02-14T11:19:53;4.00;;;2.03;;
41883;SDS011;27566;50.930;5.328;2024-02-14T11:22:19;3.40;;;1.98;;
41883;SDS011;27566;50.930;5.328;2024-02-14T11:24:47;4.18;;;2.00;;
41883;SDS011;27566;50.930;5.328;2024-02-14T11:27:13;3.80;;;1.65;;
41883;SDS011;27566;50.930;5.328;2024-02-14T11:29:51;3.63;;;2.25;;
41883;SDS011;27566;50.930;5.328;2024-02-14T11:32:18;3.47;;;1.92;;
41883;SDS011;27566;50.930;5.328;2024-02-14T11:34:54;4.72;;;2.38;;
41883;SDS011;27566;50.930;5.328;2024-02-14T11:37:26;5.10;;;2.53;;
41883;SDS011;27566;50.930;5.328;2024-02-14T11:39:56;5.20;;;2.38;;
41883;SDS011;27566;50.930;5.328;2024-02-14T11:42:23;5.50;;;2.05;;
41883;SDS011;27566;50.930;5.328;2024-02-14T11:44:49;4.97;;;2.28;;
41883;SDS011;27566;50.930;5.328;2024-02-14T11:47:15;3.28;;;1.80;;
41883;SDS011;27566;50.930;5.328;2024-02-14T11:49:41;2.85;;;1.98;;
41883;SDS011;27566;50.930;5.328;2024-02-14T11:52:13;3.25;;;1.95;;
41883;SDS011;27566;50.930;5.328;2024-02-14T11:54:39;4.90;;;2.10;;
41883;SDS011;27566;50.930;5.328;2024-02-14T11:57:06;3.88;;;2.00;;
41883;SDS011;27566;50.930;5.328;2024-02-14T11:59:33;2.67;;;1.63;;
41883;SDS011;27566;50.930;5.328;2024-02-14T12:01:59;2.05;;;1.50;;
41883;SDS011;27566;50.930;5.328;2024-02-14T12:04:27;10.15;;;1.80;;
41883;SDS011;27566;50.930;5.328;2024-02-14T12:06:54;3.80;;;1.90;;
41883;SDS011;27566;50.930;5.328;2024-02-14T12:09:20;3.17;;;1.98;;
41883;SDS011;27566;50.930;5.328;2024-02-14T12:11:46;4.10;;;2.00;;
41883;SDS011;27566;50.930;5.328;2024-02-14T12:14:12;2.95;;;1.63;;
41883;SDS011;27566;50.930;5.328;2024-02-14T12:16:39;2.63;;;1.20;;
41883;SDS011;27566;50.930;5.328;2024-02-14T12:19:06;2.58;;;1.48;;
41883;SDS011;27566;50.930;5.328;2024-02-14T12:21:42;2.42;;;1.38;;
41883;SDS011;27566;50.930;5.328;2024-02-14T12:24:10;2.95;;;1.27;;
41883;SDS011;27566;50.930;5.328;2024-02-14T12:26:39;2.08;;;1.10;;
41883;SDS011;27566;50.930;5.328;2024-02-14T12:29:06;2.47;;;1.23;;
41883;SDS011;27566;50.930;5.328;2024-02-14T12:31:34;2.15;;;1.23;;
41883;SDS011;27566;50.930;5.328;2024-02-14T12:34:01;2.55;;;1.38;;
41883;SDS011;27566;50.930;5.328;2024-02-14T12:36:30;7.18;;;2.55;;
41883;SDS011;27566;50.930;5.328;2024-02-14T12:39:00;1.92;;;1.33;;
41883;SDS011;27566;50.930;5.328;2024-02-14T12:41:32;2.67;;;1.30;;
41883;SDS011;27566;50.930;5.328;2024-02-14T12:44:00;1.90;;;1.10;;
41883;SDS011;27566;50.930;5.328;2024-02-14T12:46:26;2.20;;;1.15;;
41883;SDS011;27566;50.930;5.328;2024-02-14T12:48:53;3.33;;;1.30;;
41883;SDS011;27566;50.930;5.328;2024-02-14T12:51:19;4.78;;;1.45;;
41883;SDS011;27566;50.930;5.328;2024-02-14T12:53:45;4.55;;;2.00;;
41883;SDS011;27566;50.930;5.328;2024-02-14T12:56:11;2.72;;;1.70;;
41883;SDS011;27566;50.930;5.328;2024-02-14T12:58:38;3.50;;;1.40;;
41883;SDS011;27566;50.930;5.328;2024-02-14T13:01:04;2.80;;;1.33;;
41883;SDS011;27566;50.930;5.328;2024-02-14T13:03:36;4.20;;;1.60;;
41883;SDS011;27566;50.930;5.328;2024-02-14T13:06:03;3.33;;;1.48;;
41883;SDS011;27566;50.930;5.328;2024-02-14T13:08:29;3.85;;;1.60;;
41883;SDS011;27566;50.930;5.328;2024-02-14T13:10:55;4.68;;;1.77;;
41883;SDS011;27566;50.930;5.328;2024-02-14T13:13:22;3.92;;;1.73;;
41883;SDS011;27566;50.930;5.328;2024-02-14T13:15:48;4.32;;;2.28;;
41883;SDS011;27566;50.930;5.328;2024-02-14T13:18:14;2.17;;;1.75;;
41883;SDS011;27566;50.930;5.328;2024-02-14T13:20:40;5.97;;;1.60;;
41883;SDS011;27566;50.930;5.328;2024-02-14T13:23:07;5.95;;;2.25;;
41883;SDS011;27566;50.930;5.328;2024-02-14T13:25:34;4.07;;;2.03;;
41883;SDS011;27566;50.930;5.328;2024-02-14T13:28:01;3.85;;;2.05;;
41883;SDS011;27566;50.930;5.328;2024-02-14T13:30:27;3.05;;;2.35;;
41883;SDS011;27566;50.930;5.328;2024-02-14T13:32:55;4.15;;;2.38;;
41883;SDS011;27566;50.930;5.328;2024-02-14T13:35:21;4.70;;;2.75;;
41883;SDS011;27566;50.930;5.328;2024-02-14T13:37:47;5.45;;;2.53;;
41883;SDS011;27566;50.930;5.328;2024-02-14T13:40:13;7.38;;;3.67;;
41883;SDS011;27566;50.930;5.328;2024-02-14T13:42:39;5.00;;;2.90;;
41883;SDS011;27566;50.930;5.328;2024-02-14T13:45:05;7.68;;;3.63;;
41883;SDS011;27566;50.930;5.328;2024-02-14T13:47:35;4.88;;;2.33;;
41883;SDS011;27566;50.930;5.328;2024-02-14T13:50:04;5.15;;;3.50;;
41883;SDS011;27566;50.930;5.328;2024-02-14T13:52:30;4.85;;;2.72;;
41883;SDS011;27566;50.930;5.328;2024-02-14T13:54:56;7.55;;;2.63;;
41883;SDS011;27566;50.930;5.328;2024-02-14T13:57:22;3.80;;;2.60;;
41883;SDS011;27566;50.930;5.328;2024-02-14T13:59:48;5.82;;;2.65;;
41883;SDS011;27566;50.930;5.328;2024-02-14T14:02:14;5.93;;;2.58;;
41883;SDS011;27566;50.930;5.328;2024-02-14T14:04:40;7.97;;;2.80;;
41883;SDS011;27566;50.930;5.328;2024-02-14T14:07:06;6.90;;;3.35;;
41883;SDS011;27566;50.930;5.328;2024-02-14T14:09:33;8.60;;;3.15;;
41883;SDS011;27566;50.930;5.328;2024-02-14T14:12:00;8.40;;;3.63;;
41883;SDS011;27566;50.930;5.328;2024-02-14T14:14:26;6.57;;;2.83;;
41883;SDS011;27566;50.930;5.328;2024-02-14T14:16:52;5.80;;;2.75;;
41883;SDS011;27566;50.930;5.328;2024-02-14T14:19:18;8.05;;;4.28;;
41883;SDS011;27566;50.930;5.328;2024-02-14T14:21:44;5.43;;;2.78;;
41883;SDS011;27566;50.930;5.328;2024-02-14T14:24:10;6.10;;;3.08;;
41883;SDS011;27566;50.930;5.328;2024-02-14T14:26:36;7.05;;;3.40;;
41883;SDS011;27566;50.930;5.328;2024-02-14T14:29:03;5.60;;;3.58;;
41883;SDS011;27566;50.930;5.328;2024-02-14T14:31:29;6.28;;;3.08;;
41883;SDS011;27566;50.930;5.328;2024-02-14T14:33:55;7.28;;;4.35;;
41883;SDS011;27566;50.930;5.328;2024-02-14T14:36:22;8.00;;;4.20;;
41883;SDS011;27566;50.930;5.328;2024-02-14T14:38:48;9.48;;;4.15;;
41883;SDS011;27566;50.930;5.328;2024-02-14T14:41:14;9.90;;;3.70;;
41883;SDS011;27566;50.930;5.328;2024-02-14T14:43:40;8.70;;;4.40;;
41883;SDS011;27566;50.930;5.328;2024-02-14T14:46:06;6.65;;;3.42;;